Terminal Aerodrome Forecast
Issued by NWS Wilmington, OH

Current Version | Previous Version | Text Only | Print | Product List | Glossary Off
Versions: 1 2 3 4 5 6 7 8 9 10 11 12 13 14 15 16 17 18 19 20 21

000
FTUS41 KILN 212109 AAA
TAFCVG
TAF AMD
KCVG 212109Z 2121/2224 19010KT P6SM SCT120 BKN250
     FM220000 16004KT P6SM SCT120 BKN250
     FM221400 18012KT P6SM BKN150=

USA.gov is the U.S. government's official web portal to all federal, state and local government web resources and services.